createdAt,value
2018-10-04T00:02:28.472Z,6.69
2018-10-04T00:04:58.046Z,6.65
2018-10-04T00:07:27.160Z,6.53
2018-10-04T00:09:56.184Z,6.52
2018-10-04T00:12:25.341Z,6.49
2018-10-04T00:14:54.641Z,6.43
2018-10-04T00:17:23.908Z,6.45
2018-10-04T00:19:52.992Z,6.41
2018-10-04T00:22:22.030Z,6.39
2018-10-04T00:24:51.127Z,6.37
2018-10-04T00:27:20.165Z,6.40
2018-10-04T00:29:49.265Z,6.29
2018-10-04T00:32:18.356Z,6.29
2018-10-04T00:34:47.468Z,6.28
2018-10-04T00:37:16.552Z,6.26
2018-10-04T00:39:45.596Z,6.23
2018-10-04T00:42:14.716Z,6.25
2018-10-04T00:44:44.449Z,6.23
2018-10-04T00:47:18.665Z,6.27
2018-10-04T00:49:49.308Z,6.19
2018-10-04T00:52:18.392Z,6.13
2018-10-04T00:54:47.484Z,6.20
2018-10-04T00:57:16.544Z,6.17
2018-10-04T00:59:45.622Z,6.16
2018-10-04T01:02:14.968Z,6.06
2018-10-04T01:04:44.072Z,5.99
2018-10-04T01:07:13.168Z,5.98
2018-10-04T01:09:42.264Z,5.89
2018-10-04T01:12:11.332Z,5.82
2018-10-04T01:14:40.453Z,5.77
2018-10-04T01:17:09.459Z,5.77
2018-10-04T01:19:39.564Z,5.84
2018-10-04T01:22:09.443Z,5.79
2018-10-04T01:24:38.548Z,5.72
2018-10-04T01:27:07.672Z,5.67
2018-10-04T01:29:36.709Z,5.65
2018-10-04T01:32:05.736Z,5.65
2018-10-04T01:34:34.816Z,5.69
2018-10-04T01:37:03.905Z,5.62
2018-10-04T01:39:32.948Z,5.60
2018-10-04T01:42:02.012Z,5.58
2018-10-04T01:44:31.088Z,5.53
2018-10-04T01:47:00.192Z,5.57
2018-10-04T01:49:30.041Z,5.55
2018-10-04T01:51:59.108Z,5.53
2018-10-04T01:54:28.340Z,5.51
2018-10-04T01:56:57.828Z,5.52
2018-10-04T01:59:26.898Z,5.55
2018-10-04T02:01:56.160Z,5.54
2018-10-04T02:04:25.341Z,5.50
2018-10-04T02:06:54.400Z,5.34
2018-10-04T02:09:23.512Z,5.37
2018-10-04T02:11:54.633Z,5.34
2018-10-04T02:14:23.619Z,5.39
2018-10-04T02:16:52.765Z,5.46
2018-10-04T02:19:21.821Z,5.43
2018-10-04T02:21:50.928Z,5.41
2018-10-04T02:24:20.032Z,5.42
2018-10-04T02:26:49.133Z,5.41
2018-10-04T02:29:18.152Z,5.45
2018-10-04T02:31:47.388Z,5.36
2018-10-04T02:34:16.520Z,5.32
2018-10-04T02:36:45.582Z,5.26
2018-10-04T02:39:14.656Z,5.33
2018-10-04T02:41:43.680Z,5.28
2018-10-04T02:44:12.777Z,5.29
2018-10-04T02:46:42.100Z,5.32
2018-10-04T02:49:11.300Z,5.30
2018-10-04T02:51:40.676Z,5.29
2018-10-04T02:54:13.876Z,5.25
2018-10-04T02:56:48.369Z,5.21
2018-10-04T02:59:18.440Z,5.17
2018-10-04T03:01:47.417Z,5.11
2018-10-04T03:04:16.676Z,5.13
2018-10-04T03:06:45.977Z,5.12
2018-10-04T03:09:15.221Z,5.10
2018-10-04T03:11:44.564Z,5.05
2018-10-04T03:14:13.788Z,4.94
2018-10-04T03:16:42.887Z,4.91
2018-10-04T03:19:12.432Z,4.90
2018-10-04T03:21:42.025Z,4.88
2018-10-04T03:24:11.125Z,4.82
2018-10-04T03:26:41.040Z,4.88
2018-10-04T03:29:10.304Z,4.88
2018-10-04T03:31:39.400Z,4.85
2018-10-04T03:34:08.484Z,4.83
2018-10-04T03:36:37.630Z,4.81
2018-10-04T03:39:08.336Z,4.77
2018-10-04T03:41:37.416Z,4.75
2018-10-04T03:44:06.556Z,4.75
2018-10-04T03:46:35.644Z,4.75
2018-10-04T03:49:04.657Z,4.77
2018-10-04T03:51:33.724Z,4.78
2018-10-04T03:54:02.832Z,4.84
2018-10-04T03:56:31.901Z,4.83
2018-10-04T03:59:00.984Z,4.80
2018-10-04T04:01:30.284Z,4.76
2018-10-04T04:03:59.357Z,4.69
2018-10-04T04:06:28.360Z,4.69
2018-10-04T04:08:57.513Z,4.65
2018-10-04T04:11:26.576Z,4.59
2018-10-04T04:13:56.225Z,4.59
2018-10-04T04:16:25.412Z,4.56
2018-10-04T04:18:54.477Z,4.50
2018-10-04T04:21:23.573Z,4.51
2018-10-04T04:23:53.921Z,4.51
2018-10-04T04:26:23.033Z,4.43
2018-10-04T04:28:52.433Z,4.36
2018-10-04T04:31:21.818Z,4.34
2018-10-04T04:33:50.929Z,4.38
2018-10-04T04:36:20.131Z,4.38
2018-10-04T04:38:49.583Z,4.34
2018-10-04T04:41:18.665Z,4.30
2018-10-04T04:43:47.809Z,4.30
2018-10-04T04:46:17.492Z,4.31
2018-10-04T04:48:46.557Z,4.35
2018-10-04T04:51:15.612Z,4.35
2018-10-04T04:53:45.260Z,4.37
2018-10-04T04:56:14.364Z,4.38
2018-10-04T04:58:43.509Z,4.37
2018-10-04T05:01:12.577Z,4.34
2018-10-04T05:03:41.640Z,4.34
2018-10-04T05:06:10.774Z,4.35
2018-10-04T05:08:40.808Z,4.32
2018-10-04T05:11:09.860Z,4.21
2018-10-04T05:13:38.964Z,4.22
2018-10-04T05:16:08.309Z,4.20
2018-10-04T05:18:37.292Z,4.21
2018-10-04T05:21:06.408Z,4.20
2018-10-04T05:23:35.538Z,4.17
2018-10-04T05:26:04.643Z,4.14
2018-10-04T05:28:33.728Z,4.09
2018-10-04T05:31:02.800Z,4.10
2018-10-04T05:33:31.921Z,4.13
2018-10-04T05:36:01.017Z,4.14
2018-10-04T05:38:30.136Z,4.18
2018-10-04T05:40:59.176Z,4.18
2018-10-04T05:43:28.220Z,4.25
2018-10-04T05:45:57.317Z,4.32
2018-10-04T05:48:26.412Z,4.35
2018-10-04T05:50:56.120Z,4.34
2018-10-04T05:53:25.230Z,4.41
2018-10-04T05:55:55.312Z,4.44
2018-10-04T05:58:24.366Z,4.47
2018-10-04T06:00:53.529Z,4.50
2018-10-04T06:03:22.590Z,4.57
2018-10-04T06:05:51.641Z,4.57
2018-10-04T06:08:20.737Z,4.60
2018-10-04T06:10:49.832Z,4.62
2018-10-04T06:13:18.906Z,4.70
2018-10-04T06:15:47.964Z,4.84
2018-10-04T06:18:17.012Z,4.99
2018-10-04T06:20:46.137Z,5.18
2018-10-04T06:23:15.170Z,5.12
2018-10-04T06:25:44.253Z,5.14
2018-10-04T06:28:13.288Z,5.29
2018-10-04T06:30:42.388Z,6.21
2018-10-04T06:33:11.460Z,7.25
2018-10-04T06:35:40.499Z,8.17
2018-10-04T06:38:09.776Z,8.56
2018-10-04T06:40:38.825Z,9.00
2018-10-04T06:43:08.189Z,9.13
2018-10-04T06:45:37.265Z,9.95
2018-10-04T06:48:06.344Z,11.77
2018-10-04T06:50:35.440Z,13.38
2018-10-04T06:53:04.494Z,14.72
2018-10-04T06:55:33.619Z,16.14
2018-10-04T06:58:02.700Z,17.58
2018-10-04T07:00:31.848Z,18.79
2018-10-04T07:03:00.968Z,19.42
2018-10-04T07:05:30.041Z,20.04
2018-10-04T07:07:59.092Z,19.31
2018-10-04T07:10:28.177Z,19.26
2018-10-04T07:12:57.284Z,21.30
2018-10-04T07:15:26.343Z,22.24
2018-10-04T07:17:55.456Z,23.28
2018-10-04T07:20:24.583Z,23.74
2018-10-04T07:22:53.708Z,24.28
2018-10-04T07:25:22.772Z,25.21
2018-10-04T07:27:51.870Z,25.89
2018-10-04T07:30:20.985Z,26.37
2018-10-04T07:32:50.661Z,26.86
2018-10-04T07:35:19.757Z,27.19
2018-10-04T07:37:48.853Z,27.38
2018-10-04T07:40:18.176Z,27.85
2018-10-04T07:42:47.352Z,28.37
2018-10-04T07:45:16.684Z,28.69
2018-10-04T07:47:45.724Z,28.89
2018-10-04T07:50:14.775Z,29.30
2018-10-04T07:52:43.888Z,29.30
2018-10-04T07:55:12.968Z,28.96
2018-10-04T07:57:42.033Z,27.89
2018-10-04T08:00:11.202Z,28.91
2018-10-04T08:02:40.577Z,29.57
2018-10-04T08:05:09.720Z,29.64
2018-10-04T08:07:38.840Z,29.93
2018-10-04T08:10:07.927Z,30.41
2018-10-04T08:12:37.041Z,30.81
2018-10-04T08:15:06.449Z,30.73
2018-10-04T08:17:35.516Z,31.20
2018-10-04T08:20:04.590Z,31.65
2018-10-04T08:22:33.688Z,31.93
2018-10-04T08:25:02.763Z,31.55
2018-10-04T08:27:31.887Z,31.32
2018-10-04T08:30:00.931Z,31.58
2018-10-04T08:32:30.009Z,32.15
2018-10-04T08:34:59.104Z,32.80
2018-10-04T08:37:28.176Z,30.64
2018-10-04T08:39:57.249Z,31.29
2018-10-04T08:42:26.371Z,30.30
2018-10-04T08:44:55.381Z,31.88
2018-10-04T08:47:24.476Z,31.78
2018-10-04T08:49:53.552Z,33.38
2018-10-04T08:52:27.856Z,33.88
2018-10-04T08:55:01.560Z,32.78
2018-10-04T08:57:30.692Z,28.39
2018-10-04T08:59:59.776Z,32.12
2018-10-04T09:02:28.909Z,33.53
2018-10-04T09:04:57.980Z,33.17
2018-10-04T09:07:28.202Z,30.79
2018-10-04T09:09:59.160Z,33.77
2018-10-04T09:12:29.789Z,34.04
2018-10-04T09:14:58.907Z,34.95
2018-10-04T09:17:28.555Z,35.34
2018-10-04T09:19:58.174Z,35.43
2018-10-04T09:22:27.252Z,35.41
2018-10-04T09:24:56.336Z,35.40
2018-10-04T09:27:25.405Z,35.13
2018-10-04T09:29:59.761Z,33.49
2018-10-04T09:32:28.881Z,34.73
2018-10-04T09:34:58.077Z,34.28
2018-10-04T09:37:27.149Z,24.02
2018-10-04T09:39:56.253Z,25.15
2018-10-04T09:42:25.316Z,23.46
2018-10-04T09:44:54.407Z,25.70
2018-10-04T09:47:29.840Z,25.47
2018-10-04T09:49:59.779Z,25.78
2018-10-04T09:52:28.920Z,29.52
2018-10-04T09:55:03.289Z,30.50
2018-10-04T09:57:32.391Z,30.74
2018-10-04T10:00:07.241Z,30.71
2018-10-04T10:02:42.283Z,28.40
2018-10-04T10:05:12.628Z,29.33
2018-10-04T10:07:41.912Z,29.25
2018-10-04T10:10:11.340Z,29.95
2018-10-04T10:12:41.085Z,29.85
2018-10-04T10:15:10.099Z,30.02
2018-10-04T10:17:39.584Z,29.72
2018-10-04T10:20:09.305Z,28.59
2018-10-04T10:22:38.588Z,27.98
2018-10-04T10:25:08.349Z,28.31
2018-10-04T10:27:37.448Z,25.34
2018-10-04T10:30:06.801Z,27.29
2018-10-04T10:32:36.331Z,28.35
2018-10-04T10:35:05.821Z,26.66
2018-10-04T10:37:35.339Z,22.66
2018-10-04T10:40:04.503Z,23.33
2018-10-04T10:42:33.596Z,24.86
2018-10-04T10:45:02.749Z,25.77
2018-10-04T10:47:31.949Z,22.10
2018-10-04T10:50:01.076Z,24.73
2018-10-04T10:52:30.143Z,24.87
2018-10-04T10:54:59.232Z,24.83
2018-10-04T10:57:32.394Z,23.86
2018-10-04T11:00:01.916Z,23.12
2018-10-04T11:02:31.632Z,24.81
2018-10-04T11:05:00.836Z,26.34
2018-10-04T11:07:30.028Z,24.13
2018-10-04T11:09:59.130Z,22.44
2018-10-04T11:12:28.172Z,24.36
2018-10-04T11:14:57.276Z,25.08
2018-10-04T11:17:27.020Z,25.63
2018-10-04T11:19:56.149Z,27.33
2018-10-04T11:22:25.241Z,27.04
2018-10-04T11:24:54.324Z,26.24
2018-10-04T11:27:23.565Z,22.30
2018-10-04T11:29:52.656Z,22.63
2018-10-04T11:32:21.717Z,22.81
2018-10-04T11:34:50.764Z,23.56
2018-10-04T11:37:19.904Z,22.90
2018-10-04T11:39:48.992Z,22.17
2018-10-04T11:42:18.111Z,22.29
2018-10-04T11:44:52.577Z,22.32
2018-10-04T11:47:32.765Z,23.37
2018-10-04T11:50:02.132Z,25.26
2018-10-04T11:52:31.185Z,26.33
2018-10-04T11:55:00.220Z,27.59
2018-10-04T11:57:29.348Z,27.98
2018-10-04T11:59:58.392Z,28.70
2018-10-04T12:02:28.563Z,27.74
2018-10-04T12:04:57.968Z,27.71
2018-10-04T12:07:27.065Z,28.62
2018-10-04T12:09:56.124Z,28.50
2018-10-04T12:12:25.269Z,26.27
2018-10-04T12:14:54.292Z,23.40
2018-10-04T12:17:23.332Z,25.37
2018-10-04T12:19:52.429Z,25.46
2018-10-04T12:22:21.497Z,24.52
2018-10-04T12:24:50.589Z,25.00
2018-10-04T12:27:19.724Z,26.24
2018-10-04T12:29:48.825Z,27.01
2018-10-04T12:32:17.925Z,26.84
2018-10-04T12:34:47.693Z,23.21
2018-10-04T12:37:16.788Z,23.01
2018-10-04T12:39:45.884Z,23.56
2018-10-04T12:42:14.955Z,25.03
2018-10-04T12:44:44.087Z,24.94
2018-10-04T12:47:13.159Z,26.08
2018-10-04T12:49:42.376Z,24.81
2018-10-04T12:52:11.496Z,25.35
2018-10-04T12:54:40.568Z,25.02
2018-10-04T12:57:09.752Z,26.82
2018-10-04T12:59:38.840Z,26.72
2018-10-04T13:02:07.945Z,26.24
2018-10-04T13:04:37.184Z,25.04
2018-10-04T13:07:06.576Z,26.74
2018-10-04T13:09:35.448Z,27.29
2018-10-04T13:12:05.692Z,27.40
2018-10-04T13:14:34.716Z,28.39
2018-10-04T13:17:03.862Z,27.27
2018-10-04T13:19:32.968Z,27.85
2018-10-04T13:22:02.040Z,24.44
2018-10-04T13:24:31.060Z,23.73
2018-10-04T13:27:00.152Z,24.20
2018-10-04T13:29:29.232Z,23.08
2018-10-04T13:31:58.296Z,24.36
2018-10-04T13:34:27.393Z,26.17
2018-10-04T13:36:56.424Z,23.52
2018-10-04T13:39:25.484Z,21.60
2018-10-04T13:41:54.588Z,21.50
2018-10-04T13:44:23.692Z,21.78
2018-10-04T13:46:52.785Z,21.90
2018-10-04T13:49:21.893Z,23.80
2018-10-04T13:51:50.979Z,23.94
2018-10-04T13:54:20.028Z,25.33
2018-10-04T13:56:49.581Z,25.77
2018-10-04T13:59:18.713Z,26.11
2018-10-04T14:01:47.816Z,25.41
2018-10-04T14:04:16.956Z,24.40
2018-10-04T14:06:46.052Z,23.72
2018-10-04T14:09:15.180Z,23.40
2018-10-04T14:11:44.268Z,22.17
2018-10-04T14:14:13.369Z,22.06
2018-10-04T14:16:42.480Z,21.77
2018-10-04T14:19:11.588Z,21.06
2018-10-04T14:21:40.672Z,20.79
2018-10-04T14:24:09.985Z,19.82
2018-10-04T14:26:39.060Z,19.81
2018-10-04T14:29:08.320Z,20.25
2018-10-04T14:31:37.760Z,20.51
2018-10-04T14:34:07.332Z,20.93
2018-10-04T14:36:36.401Z,21.18
2018-10-04T14:39:06.052Z,21.57
2018-10-04T14:41:35.058Z,21.02
2018-10-04T14:44:04.101Z,21.04
2018-10-04T14:46:33.153Z,21.23
2018-10-04T14:49:02.281Z,20.97
2018-10-04T14:51:31.500Z,20.70
2018-10-04T14:54:00.524Z,20.25
2018-10-04T14:56:29.661Z,19.61
2018-10-04T14:58:58.743Z,19.17
2018-10-04T15:01:27.837Z,19.70
2018-10-04T15:03:57.338Z,20.08
2018-10-04T15:06:26.439Z,20.26
2018-10-04T15:08:55.496Z,19.66
2018-10-04T15:11:24.730Z,19.47
2018-10-04T15:13:53.776Z,19.61
2018-10-04T15:16:23.388Z,19.53
2018-10-04T15:18:52.472Z,19.46
2018-10-04T15:21:21.500Z,19.59
2018-10-04T15:23:50.621Z,19.70
2018-10-04T15:26:19.749Z,19.58
2018-10-04T15:28:48.913Z,19.55
2018-10-04T15:31:18.289Z,19.56
2018-10-04T15:33:47.433Z,19.29
2018-10-04T15:36:16.545Z,19.06
2018-10-04T15:38:45.969Z,19.10
2018-10-04T15:41:15.058Z,19.17
2018-10-04T15:43:44.309Z,19.34
2018-10-04T15:46:13.387Z,19.26
2018-10-04T15:48:42.464Z,19.18
2018-10-04T15:51:11.584Z,19.00
2018-10-04T15:53:40.681Z,19.10
2018-10-04T15:56:09.800Z,19.07
2018-10-04T15:58:38.952Z,18.91
2018-10-04T16:01:08.172Z,18.69
2018-10-04T16:03:37.321Z,18.52
2018-10-04T16:06:06.385Z,18.59
2018-10-04T16:08:35.563Z,18.60
2018-10-04T16:11:04.681Z,18.56
2018-10-04T16:13:33.923Z,18.43
2018-10-04T16:16:02.836Z,18.44
2018-10-04T16:18:32.112Z,18.40
2018-10-04T16:21:01.205Z,18.24
2018-10-04T16:23:30.232Z,18.18
2018-10-04T16:25:59.309Z,18.05
2018-10-04T16:28:28.348Z,17.92
2018-10-04T16:30:57.500Z,17.74
2018-10-04T16:33:26.608Z,17.60
2018-10-04T16:35:55.736Z,17.47
2018-10-04T16:38:24.919Z,17.33
2018-10-04T16:40:53.908Z,17.13
2018-10-04T16:43:22.972Z,16.95
2018-10-04T16:45:52.093Z,16.82
2018-10-04T16:48:21.392Z,16.74
2018-10-04T16:50:50.471Z,16.56
2018-10-04T16:53:19.508Z,16.39
2018-10-04T16:55:48.622Z,16.28
2018-10-04T16:58:17.933Z,16.15
2018-10-04T17:00:47.120Z,15.91
2018-10-04T17:03:16.247Z,15.65
2018-10-04T17:05:45.325Z,15.56
2018-10-04T17:08:14.465Z,15.48
2018-10-04T17:10:43.572Z,15.37
2018-10-04T17:13:12.641Z,15.16
2018-10-04T17:15:41.712Z,15.06
2018-10-04T17:18:11.426Z,14.94
2018-10-04T17:20:40.992Z,14.80
2018-10-04T17:23:10.100Z,14.70
2018-10-04T17:25:39.257Z,14.56
2018-10-04T17:28:08.320Z,14.45
2018-10-04T17:30:37.416Z,14.32
2018-10-04T17:33:06.565Z,14.25
2018-10-04T17:35:35.634Z,14.14
2018-10-04T17:38:04.734Z,14.04
2018-10-04T17:40:34.138Z,13.96
2018-10-04T17:43:03.208Z,13.82
2018-10-04T17:45:32.287Z,13.78
2018-10-04T17:48:01.421Z,13.62
2018-10-04T17:50:30.517Z,13.56
2018-10-04T17:52:59.613Z,13.49
2018-10-04T17:55:29.221Z,13.48
2018-10-04T17:57:58.261Z,13.38
2018-10-04T18:00:27.328Z,13.24
2018-10-04T18:02:56.425Z,13.19
2018-10-04T18:05:25.464Z,13.11
2018-10-04T18:07:54.596Z,12.98
2018-10-04T18:10:23.636Z,12.93
2018-10-04T18:12:52.785Z,12.90
2018-10-04T18:15:21.937Z,12.78
2018-10-04T18:17:51.161Z,12.73
2018-10-04T18:20:20.232Z,12.66
2018-10-04T18:22:49.372Z,12.64
2018-10-04T18:25:18.412Z,12.56
2018-10-04T18:27:47.561Z,12.42
2018-10-04T18:30:16.686Z,12.36
2018-10-04T18:32:45.793Z,12.30
2018-10-04T18:35:14.809Z,12.22
2018-10-04T18:37:43.850Z,12.16
2018-10-04T18:40:12.922Z,12.11
2018-10-04T18:42:42.033Z,12.07
2018-10-04T18:45:11.106Z,11.98
2018-10-04T18:47:40.212Z,11.93
2018-10-04T18:50:09.441Z,11.79
2018-10-04T18:52:38.524Z,11.76
2018-10-04T18:55:07.600Z,11.70
2018-10-04T18:57:36.684Z,11.68
2018-10-04T19:00:05.901Z,11.62
2018-10-04T19:02:34.909Z,11.52
2018-10-04T19:05:03.984Z,11.48
2018-10-04T19:07:33.089Z,11.35
2018-10-04T19:10:02.356Z,11.36
2018-10-04T19:12:31.461Z,11.22
2018-10-04T19:15:00.533Z,11.21
2018-10-04T19:17:29.673Z,11.16
2018-10-04T19:19:58.724Z,11.14
2018-10-04T19:22:27.841Z,11.10
2018-10-04T19:24:56.857Z,11.01
2018-10-04T19:27:25.960Z,10.98
2018-10-04T19:29:55.049Z,10.94
2018-10-04T19:32:24.152Z,10.96
2018-10-04T19:34:53.204Z,10.83
2018-10-04T19:37:22.293Z,10.82
2018-10-04T19:39:51.396Z,10.72
2018-10-04T19:42:20.480Z,10.66
2018-10-04T19:44:49.576Z,10.58
2018-10-04T19:47:18.608Z,10.50
2018-10-04T19:49:47.777Z,10.50
2018-10-04T19:52:16.861Z,10.44
2018-10-04T19:54:46.572Z,10.44
2018-10-04T19:57:15.664Z,10.35
2018-10-04T19:59:45.180Z,10.23
2018-10-04T20:02:14.288Z,10.24
2018-10-04T20:04:43.361Z,10.13
2018-10-04T20:07:12.424Z,10.13
2018-10-04T20:09:41.648Z,10.19
2018-10-04T20:12:10.656Z,10.18
2018-10-04T20:14:39.776Z,10.17
2018-10-04T20:17:09.249Z,10.17
2018-10-04T20:19:38.264Z,10.20
2018-10-04T20:22:12.197Z,10.10
2018-10-04T20:24:41.304Z,10.04
2018-10-04T20:27:10.708Z,9.94
2018-10-04T20:29:40.344Z,9.96
2018-10-04T20:32:09.904Z,9.87
2018-10-04T20:34:39.309Z,9.83
2018-10-04T20:37:08.436Z,9.53
2018-10-04T20:39:37.501Z,9.46
2018-10-04T20:42:06.549Z,9.55
2018-10-04T20:44:35.584Z,9.60
2018-10-04T20:47:05.068Z,9.59
2018-10-04T20:49:34.098Z,9.58
2018-10-04T20:52:03.188Z,9.59
2018-10-04T20:54:32.240Z,9.54
2018-10-04T20:57:01.264Z,9.44
2018-10-04T20:59:30.752Z,9.44
2018-10-04T21:01:59.832Z,9.44
2018-10-04T21:04:28.920Z,9.42
2018-10-04T21:06:58.189Z,9.42
2018-10-04T21:09:27.204Z,9.31
2018-10-04T21:11:56.264Z,9.28
2018-10-04T21:14:25.348Z,9.25
2018-10-04T21:16:54.409Z,9.18
2018-10-04T21:19:23.610Z,9.10
2018-10-04T21:21:52.716Z,8.99
2018-10-04T21:24:21.832Z,8.98
2018-10-04T21:26:50.881Z,8.88
2018-10-04T21:29:20.039Z,8.86
2018-10-04T21:31:49.093Z,8.84
2018-10-04T21:34:18.164Z,8.73
2018-10-04T21:36:47.256Z,8.74
2018-10-04T21:39:16.505Z,8.69
2018-10-04T21:41:45.592Z,8.67
2018-10-04T21:44:14.697Z,8.65
2018-10-04T21:46:43.792Z,8.69
2018-10-04T21:49:12.890Z,8.70
2018-10-04T21:51:41.984Z,8.74
2018-10-04T21:54:11.032Z,8.71
2018-10-04T21:56:40.072Z,8.69
2018-10-04T21:59:09.185Z,8.71
2018-10-04T22:01:38.261Z,8.74
2018-10-04T22:04:07.688Z,8.69
2018-10-04T22:06:36.836Z,8.66
2018-10-04T22:09:08.837Z,8.58
2018-10-04T22:11:37.972Z,8.51
2018-10-04T22:14:07.620Z,8.38
2018-10-04T22:16:36.645Z,8.37
2018-10-04T22:19:05.696Z,8.30
2018-10-04T22:21:34.804Z,8.31
2018-10-04T22:24:03.937Z,8.15
2018-10-04T22:26:33.130Z,8.20
2018-10-04T22:29:02.256Z,8.19
2018-10-04T22:31:31.349Z,8.17
2018-10-04T22:34:00.448Z,8.12
2018-10-04T22:36:29.496Z,8.09
2018-10-04T22:38:58.565Z,8.11
2018-10-04T22:41:27.621Z,8.08
2018-10-04T22:43:56.680Z,8.04
2018-10-04T22:46:25.764Z,8.02
2018-10-04T22:48:55.884Z,8.07
2018-10-04T22:51:24.985Z,7.98
2018-10-04T22:53:54.077Z,7.91
2018-10-04T22:56:23.236Z,7.72
2018-10-04T22:58:52.320Z,7.72
2018-10-04T23:01:21.383Z,7.73
2018-10-04T23:03:50.555Z,7.69
2018-10-04T23:06:19.659Z,7.67
2018-10-04T23:08:48.669Z,7.63
2018-10-04T23:11:17.915Z,7.59
2018-10-04T23:13:46.996Z,7.67
2018-10-04T23:16:16.397Z,7.64
2018-10-04T23:18:45.812Z,7.66
2018-10-04T23:21:14.900Z,7.62
2018-10-04T23:23:43.961Z,7.59
2018-10-04T23:26:13.100Z,7.55
2018-10-04T23:28:42.152Z,7.51
2018-10-04T23:31:11.228Z,7.43
2018-10-04T23:33:40.321Z,7.44
2018-10-04T23:36:09.376Z,7.36
2018-10-04T23:38:38.464Z,7.28
2018-10-04T23:41:07.580Z,7.26
2018-10-04T23:43:36.638Z,7.29
2018-10-04T23:46:05.684Z,7.21
2018-10-04T23:48:34.766Z,7.21
2018-10-04T23:51:03.853Z,7.15
2018-10-04T23:53:33.284Z,7.13
2018-10-04T23:56:02.324Z,7.04
2018-10-04T23:58:31.396Z,6.94
